createdAt,value
2023-03-15T00:01:14.818Z,3.93
2023-03-15T00:03:42.002Z,3.90
2023-03-15T00:06:08.682Z,3.88
2023-03-15T00:08:35.197Z,3.84
2023-03-15T00:11:01.991Z,3.81
2023-03-15T00:13:28.491Z,3.81
2023-03-15T00:15:58.647Z,3.81
2023-03-15T00:18:26.089Z,3.80
2023-03-15T00:20:52.932Z,3.77
2023-03-15T00:23:19.463Z,3.76
2023-03-15T00:25:47.322Z,3.75
2023-03-15T00:28:14.468Z,3.71
2023-03-15T00:30:40.966Z,3.67
2023-03-15T00:33:07.443Z,3.65
2023-03-15T00:35:34.333Z,3.63
2023-03-15T00:38:00.823Z,3.61
2023-03-15T00:40:27.613Z,3.60
2023-03-15T00:42:54.074Z,3.58
2023-03-15T00:45:21.707Z,3.54
2023-03-15T00:47:52.343Z,3.53
2023-03-15T00:50:19.604Z,3.50
2023-03-15T00:52:46.170Z,3.50
2023-03-15T00:55:16.048Z,3.48
2023-03-15T00:57:43.670Z,3.50
2023-03-15T01:00:16.759Z,3.51
2023-03-15T01:02:43.383Z,3.50
2023-03-15T01:05:10.491Z,3.49
2023-03-15T01:07:37.337Z,3.49
2023-03-15T01:10:05.405Z,3.51
2023-03-15T01:12:33.069Z,3.54
2023-03-15T01:15:00.686Z,3.52
2023-03-15T01:17:27.179Z,3.49
2023-03-15T01:19:53.656Z,3.48
2023-03-15T01:22:20.614Z,3.47
2023-03-15T01:24:47.100Z,3.46
2023-03-15T01:27:13.695Z,3.46
2023-03-15T01:29:40.193Z,3.47
2023-03-15T01:32:07.135Z,3.48
2023-03-15T01:34:34.415Z,3.46
2023-03-15T01:37:01.064Z,3.47
2023-03-15T01:39:27.557Z,3.45
2023-03-15T01:41:54.042Z,3.44
2023-03-15T01:44:21.107Z,3.43
2023-03-15T01:46:47.685Z,3.45
2023-03-15T01:49:18.066Z,3.42
2023-03-15T01:52:01.596Z,3.40
2023-03-15T01:54:34.665Z,3.42
2023-03-15T01:57:04.801Z,3.37
2023-03-15T01:59:33.803Z,3.39
2023-03-15T02:02:00.994Z,3.38
2023-03-15T02:04:39.799Z,3.39
2023-03-15T02:07:07.419Z,3.40
2023-03-15T02:10:00.214Z,3.36
2023-03-15T02:12:28.093Z,3.39
2023-03-15T02:14:54.926Z,3.38
2023-03-15T02:17:28.361Z,3.38
2023-03-15T02:20:27.382Z,3.36
2023-03-15T02:22:57.053Z,3.34
2023-03-15T02:25:30.699Z,3.33
2023-03-15T02:27:57.601Z,3.33
2023-03-15T02:30:24.246Z,3.33
2023-03-15T02:32:50.862Z,3.33
2023-03-15T02:35:30.031Z,3.30
2023-03-15T02:37:56.537Z,3.28
2023-03-15T02:40:27.780Z,3.27
2023-03-15T02:42:57.931Z,3.25
2023-03-15T02:45:25.581Z,3.26
2023-03-15T02:47:52.144Z,3.24
2023-03-15T02:50:18.813Z,3.24
2023-03-15T02:52:45.490Z,3.25
2023-03-15T02:55:12.104Z,3.22
2023-03-15T02:57:39.033Z,3.20
2023-03-15T03:00:14.352Z,3.20
2023-03-15T03:02:41.870Z,3.16
2023-03-15T03:05:08.842Z,3.17
2023-03-15T03:07:35.481Z,3.13
2023-03-15T03:10:02.390Z,3.13
2023-03-15T03:12:28.845Z,3.14
2023-03-15T03:14:56.700Z,3.15
2023-03-15T03:17:23.735Z,3.14
2023-03-15T03:19:51.714Z,3.14
2023-03-15T03:22:18.205Z,3.11
2023-03-15T03:24:46.059Z,3.11
2023-03-15T03:27:17.417Z,3.09
2023-03-15T03:29:43.990Z,3.07
2023-03-15T03:32:10.618Z,3.07
2023-03-15T03:34:37.198Z,3.05
2023-03-15T03:37:03.902Z,3.03
2023-03-15T03:39:30.898Z,3.01
2023-03-15T03:41:57.382Z,3.01
2023-03-15T03:44:23.831Z,3.01
2023-03-15T03:46:50.322Z,3.02
2023-03-15T03:49:16.826Z,3.03
2023-03-15T03:51:43.307Z,3.00
2023-03-15T03:54:09.818Z,3.04
2023-03-15T03:56:36.301Z,3.07
2023-03-15T03:59:02.781Z,3.10
2023-03-15T04:01:29.240Z,3.13
2023-03-15T04:03:55.710Z,3.13
2023-03-15T04:06:22.618Z,3.11
2023-03-15T04:08:49.228Z,3.12
2023-03-15T04:11:17.588Z,3.12
2023-03-15T04:13:45.425Z,3.14
2023-03-15T04:16:12.772Z,3.20
2023-03-15T04:18:40.276Z,3.22
2023-03-15T04:21:10.720Z,3.23
2023-03-15T04:23:38.190Z,3.29
2023-03-15T04:26:07.961Z,3.32
2023-03-15T04:28:34.528Z,3.34
2023-03-15T04:31:01.004Z,3.34
2023-03-15T04:33:28.280Z,3.39
2023-03-15T04:35:54.784Z,3.40
2023-03-15T04:38:27.042Z,3.40
2023-03-15T04:40:54.850Z,3.41
2023-03-15T04:43:22.246Z,3.42
2023-03-15T04:45:48.720Z,3.43
2023-03-15T04:48:15.177Z,3.42
2023-03-15T04:50:41.652Z,3.42
2023-03-15T04:53:08.133Z,3.44
2023-03-15T04:55:34.573Z,3.45
2023-03-15T04:58:01.021Z,3.44
2023-03-15T05:00:27.579Z,3.43
2023-03-15T05:02:55.207Z,3.46
2023-03-15T05:05:23.794Z,3.47
2023-03-15T05:07:50.508Z,3.48
2023-03-15T05:10:17.475Z,3.52
2023-03-15T05:12:43.970Z,3.53
2023-03-15T05:15:10.879Z,3.53
2023-03-15T05:17:37.412Z,3.53
2023-03-15T05:20:11.814Z,3.55
2023-03-15T05:22:39.291Z,3.53
2023-03-15T05:25:06.281Z,3.51
2023-03-15T05:27:34.026Z,3.51
2023-03-15T05:30:03.924Z,3.52
2023-03-15T05:32:34.331Z,3.52
2023-03-15T05:35:01.724Z,3.54
2023-03-15T05:37:28.234Z,3.54
2023-03-15T05:39:54.727Z,3.52
2023-03-15T05:42:25.320Z,3.52
2023-03-15T05:44:52.915Z,3.54
2023-03-15T05:47:19.728Z,3.55
2023-03-15T05:49:46.733Z,3.54
2023-03-15T05:52:13.202Z,3.55
2023-03-15T05:54:39.807Z,3.56
2023-03-15T05:57:06.517Z,3.59
2023-03-15T05:59:33.412Z,3.57
2023-03-15T06:01:59.881Z,3.58
2023-03-15T06:04:26.375Z,3.59
2023-03-15T06:06:53.305Z,3.63
2023-03-15T06:09:19.896Z,3.65
2023-03-15T06:11:46.375Z,3.67
2023-03-15T06:14:12.852Z,3.67
2023-03-15T06:16:39.404Z,3.69
2023-03-15T06:19:05.922Z,3.70
2023-03-15T06:21:32.410Z,3.72
2023-03-15T06:23:58.939Z,3.75
2023-03-15T06:26:25.513Z,3.79
2023-03-15T06:28:51.986Z,3.84
2023-03-15T06:31:18.526Z,3.93
2023-03-15T06:33:45.149Z,3.98
2023-03-15T06:36:11.926Z,4.02
2023-03-15T06:38:38.473Z,4.04
2023-03-15T06:41:05.240Z,4.07
2023-03-15T06:43:31.913Z,4.09
2023-03-15T06:46:00.091Z,4.13
2023-03-15T06:48:28.052Z,4.17
2023-03-15T06:50:54.592Z,4.21
2023-03-15T06:53:21.041Z,4.21
2023-03-15T06:55:48.070Z,4.21
2023-03-15T06:58:14.519Z,4.22
2023-03-15T07:00:41.547Z,4.23
2023-03-15T07:03:08.092Z,4.27
2023-03-15T07:05:34.550Z,4.29
2023-03-15T07:08:00.985Z,4.28
2023-03-15T07:10:27.393Z,4.30
2023-03-15T07:12:53.803Z,4.34
2023-03-15T07:15:20.261Z,4.36
2023-03-15T07:17:46.706Z,4.38
2023-03-15T07:20:13.115Z,4.39
2023-03-15T07:22:39.530Z,4.43
2023-03-15T07:25:07.425Z,4.47
2023-03-15T07:27:34.011Z,4.53
2023-03-15T07:30:01.077Z,4.57
2023-03-15T07:32:27.609Z,4.62
2023-03-15T07:34:58.126Z,4.67
2023-03-15T07:37:24.562Z,4.70
2023-03-15T07:39:50.974Z,4.75
2023-03-15T07:42:17.423Z,4.80
2023-03-15T07:44:43.916Z,4.86
2023-03-15T07:47:10.759Z,4.89
2023-03-15T07:49:37.243Z,4.95
2023-03-15T07:52:03.838Z,4.97
2023-03-15T07:54:31.694Z,5.01
2023-03-15T07:56:58.091Z,5.06
2023-03-15T07:59:24.538Z,5.12
2023-03-15T08:01:51.380Z,5.19
2023-03-15T08:04:17.910Z,5.21
2023-03-15T08:06:44.595Z,5.28
2023-03-15T08:09:12.027Z,5.30
2023-03-15T08:11:38.455Z,5.34
2023-03-15T08:14:04.872Z,5.40
2023-03-15T08:16:31.383Z,5.56
2023-03-15T08:18:57.840Z,5.75
2023-03-15T08:21:24.245Z,5.92
2023-03-15T08:23:50.653Z,6.07
2023-03-15T08:26:17.206Z,6.20
2023-03-15T08:28:43.654Z,6.26
2023-03-15T08:31:10.196Z,6.34
2023-03-15T08:33:36.691Z,6.35
2023-03-15T08:36:03.305Z,6.35
2023-03-15T08:38:29.765Z,6.30
2023-03-15T08:40:57.266Z,6.27
2023-03-15T08:43:23.701Z,6.27
2023-03-15T08:46:00.586Z,6.23
2023-03-15T08:48:27.752Z,6.28
2023-03-15T08:50:54.200Z,6.39
2023-03-15T08:53:20.896Z,6.50
2023-03-15T08:55:48.798Z,6.69
2023-03-15T08:58:15.212Z,6.84
2023-03-15T09:00:41.659Z,6.96
2023-03-15T09:03:08.681Z,7.11
2023-03-15T09:05:36.018Z,7.17
2023-03-15T09:08:02.465Z,7.16
2023-03-15T09:10:28.870Z,7.15
2023-03-15T09:12:55.543Z,7.09
2023-03-15T09:15:22.102Z,6.98
2023-03-15T09:17:50.913Z,6.86
2023-03-15T09:20:19.070Z,6.81
2023-03-15T09:22:52.042Z,6.72
2023-03-15T09:25:18.933Z,6.88
2023-03-15T09:27:45.729Z,7.04
2023-03-15T09:30:13.476Z,7.21
2023-03-15T09:32:40.109Z,7.17
2023-03-15T09:35:08.835Z,7.05
2023-03-15T09:37:35.254Z,7.02
2023-03-15T09:40:02.134Z,7.04
2023-03-15T09:42:53.175Z,7.24
2023-03-15T09:45:56.613Z,7.31
2023-03-15T09:48:33.330Z,7.37
2023-03-15T09:51:07.937Z,7.46
2023-03-15T09:53:46.739Z,7.40
2023-03-15T09:56:29.033Z,7.43
2023-03-15T09:58:58.606Z,7.31
2023-03-15T10:01:34.955Z,7.31
2023-03-15T10:04:28.238Z,7.20
2023-03-15T10:06:57.264Z,7.21
2023-03-15T10:09:26.959Z,7.38
2023-03-15T10:12:07.078Z,7.61
2023-03-15T10:14:46.914Z,7.82
2023-03-15T10:17:16.401Z,7.78
2023-03-15T10:19:50.285Z,7.78
2023-03-15T10:22:30.018Z,7.86
2023-03-15T10:25:00.477Z,7.82
2023-03-15T10:27:36.926Z,7.81
2023-03-15T10:30:15.623Z,7.90
2023-03-15T10:32:43.737Z,8.02
2023-03-15T10:35:18.054Z,8.13
2023-03-15T10:37:44.946Z,8.22
2023-03-15T10:40:16.020Z,8.32
2023-03-15T10:42:44.588Z,8.37
2023-03-15T10:45:23.099Z,8.28
2023-03-15T10:47:59.431Z,8.29
2023-03-15T10:50:30.083Z,8.43
2023-03-15T10:52:58.127Z,8.56
2023-03-15T10:55:33.139Z,8.70
2023-03-15T10:58:13.405Z,8.66
2023-03-15T11:00:49.478Z,8.66
2023-03-15T11:03:18.695Z,8.57
2023-03-15T11:05:49.027Z,8.45
2023-03-15T11:08:18.486Z,8.28
2023-03-15T11:10:46.446Z,8.24
2023-03-15T11:13:23.331Z,8.20
2023-03-15T11:16:04.917Z,8.17
2023-03-15T11:18:38.165Z,8.27
2023-03-15T11:21:10.546Z,8.36
2023-03-15T11:23:38.962Z,8.51
2023-03-15T11:26:06.234Z,8.55
2023-03-15T11:28:35.720Z,8.56
2023-03-15T11:31:04.618Z,8.43
2023-03-15T11:34:03.642Z,8.36
2023-03-15T11:36:32.386Z,8.23
2023-03-15T11:39:02.930Z,8.11
2023-03-15T11:41:43.810Z,8.12
2023-03-15T11:44:12.749Z,8.15
2023-03-15T11:46:50.777Z,8.18
2023-03-15T11:49:35.266Z,8.34
2023-03-15T11:52:02.194Z,8.44
2023-03-15T11:54:30.237Z,8.42
2023-03-15T11:57:17.977Z,8.68
2023-03-15T11:59:45.870Z,8.90
2023-03-15T12:02:13.989Z,9.08
2023-03-15T12:04:46.084Z,9.12
2023-03-15T12:07:24.608Z,9.18
2023-03-15T12:09:56.270Z,9.29
2023-03-15T12:12:25.801Z,9.47
2023-03-15T12:15:14.318Z,9.60
2023-03-15T12:17:50.531Z,9.70
2023-03-15T12:20:19.765Z,9.78
2023-03-15T12:22:51.994Z,9.88
2023-03-15T12:25:48.861Z,9.84
2023-03-15T12:28:31.545Z,9.73
2023-03-15T12:31:01.764Z,9.58
2023-03-15T12:33:30.177Z,9.36
2023-03-15T12:36:08.360Z,8.98
2023-03-15T12:38:41.820Z,8.72
2023-03-15T12:41:10.066Z,8.60
2023-03-15T12:43:44.477Z,8.55
2023-03-15T12:46:46.096Z,8.51
2023-03-15T12:49:14.870Z,8.40
2023-03-15T12:51:44.865Z,8.40
2023-03-15T12:54:14.110Z,8.36
2023-03-15T12:56:43.189Z,8.31
2023-03-15T12:59:17.901Z,8.27
2023-03-15T13:01:45.228Z,8.19
2023-03-15T13:04:12.780Z,8.07
2023-03-15T13:06:52.983Z,7.91
2023-03-15T13:09:49.374Z,7.81
2023-03-15T13:12:31.618Z,7.77
2023-03-15T13:15:02.093Z,7.80
2023-03-15T13:17:38.084Z,7.81
2023-03-15T13:20:28.222Z,7.88
2023-03-15T13:23:03.647Z,8.01
2023-03-15T13:25:34.335Z,8.13
2023-03-15T13:28:37.087Z,8.33
2023-03-15T13:31:20.486Z,8.48
2023-03-15T13:33:48.524Z,8.66
2023-03-15T13:36:23.488Z,8.76
2023-03-15T13:38:51.621Z,8.90
2023-03-15T13:41:24.661Z,9.07
2023-03-15T13:43:53.113Z,9.20
2023-03-15T13:46:24.457Z,9.28
2023-03-15T13:48:52.262Z,9.36
2023-03-15T13:51:22.576Z,9.46
2023-03-15T13:53:51.726Z,9.54
2023-03-15T13:56:20.428Z,9.61
2023-03-15T13:58:47.634Z,9.73
2023-03-15T14:01:15.063Z,9.89
2023-03-15T14:03:43.921Z,10.03
2023-03-15T14:06:13.726Z,10.11
2023-03-15T14:08:40.579Z,10.17
2023-03-15T14:11:12.148Z,10.19
2023-03-15T14:13:51.964Z,10.04
2023-03-15T14:17:03.517Z,9.88
2023-03-15T14:19:31.782Z,9.78
2023-03-15T14:22:03.641Z,9.63
2023-03-15T14:24:34.555Z,9.56
2023-03-15T14:27:04.817Z,9.52
2023-03-15T14:29:39.163Z,9.49
2023-03-15T14:32:23.644Z,9.49
2023-03-15T14:34:50.143Z,9.35
2023-03-15T14:37:30.438Z,9.26
2023-03-15T14:40:14.990Z,9.19
2023-03-15T14:42:42.773Z,9.10
2023-03-15T14:45:09.718Z,9.06
2023-03-15T14:47:55.107Z,8.98
2023-03-15T14:50:23.803Z,8.90
2023-03-15T14:52:51.298Z,8.78
2023-03-15T14:55:29.248Z,8.65
2023-03-15T14:57:55.682Z,8.44
2023-03-15T15:00:22.364Z,8.20
2023-03-15T15:02:51.785Z,8.01
2023-03-15T15:05:23.539Z,7.91
2023-03-15T15:07:54.574Z,7.77
2023-03-15T15:10:22.567Z,7.86
2023-03-15T15:12:56.377Z,7.84
2023-03-15T15:15:33.586Z,7.81
2023-03-15T15:18:01.822Z,7.83
2023-03-15T15:20:28.241Z,7.85
2023-03-15T15:22:54.680Z,7.78
2023-03-15T15:25:24.077Z,7.82
2023-03-15T15:27:50.747Z,7.84
2023-03-15T15:30:20.774Z,7.89
2023-03-15T15:32:47.484Z,7.90
2023-03-15T15:35:16.686Z,7.86
2023-03-15T15:37:44.783Z,7.73
2023-03-15T15:40:20.358Z,7.64
2023-03-15T15:42:47.081Z,7.67
2023-03-15T15:45:15.603Z,7.67
2023-03-15T15:47:42.437Z,7.67
2023-03-15T15:50:13.888Z,7.62
2023-03-15T15:52:42.048Z,7.65
2023-03-15T15:55:13.951Z,7.58
2023-03-15T15:57:40.939Z,7.58
2023-03-15T16:00:09.240Z,7.57
2023-03-15T16:02:35.711Z,7.63
2023-03-15T16:05:02.184Z,7.66
2023-03-15T16:07:29.035Z,7.72
2023-03-15T16:09:56.516Z,7.73
2023-03-15T16:12:24.284Z,7.74
2023-03-15T16:14:50.794Z,7.80
2023-03-15T16:17:21.462Z,7.84
2023-03-15T16:19:51.806Z,7.81
2023-03-15T16:22:20.282Z,7.77
2023-03-15T16:24:50.778Z,7.80
2023-03-15T16:27:18.556Z,7.82
2023-03-15T16:29:47.475Z,7.77
2023-03-15T16:32:26.721Z,7.71
2023-03-15T16:35:00.934Z,7.65
2023-03-15T16:37:30.874Z,7.64
2023-03-15T16:40:00.051Z,7.60
2023-03-15T16:42:26.516Z,7.56
2023-03-15T16:44:59.503Z,7.54
2023-03-15T16:47:25.958Z,7.52
2023-03-15T16:49:52.430Z,7.48
2023-03-15T16:52:18.832Z,7.42
2023-03-15T16:54:47.566Z,7.36
2023-03-15T16:57:19.200Z,7.28
2023-03-15T16:59:45.672Z,7.25
2023-03-15T17:02:26.249Z,7.19
2023-03-15T17:04:52.893Z,7.18
2023-03-15T17:07:24.730Z,7.10
2023-03-15T17:09:52.215Z,7.07
2023-03-15T17:12:24.930Z,7.01
2023-03-15T17:14:52.633Z,6.96
2023-03-15T17:17:19.053Z,6.86
2023-03-15T17:19:45.648Z,6.81
2023-03-15T17:22:12.166Z,6.78
2023-03-15T17:24:38.706Z,6.73
2023-03-15T17:27:05.208Z,6.68
2023-03-15T17:29:31.668Z,6.62
2023-03-15T17:31:58.200Z,6.58
2023-03-15T17:34:24.825Z,6.52
2023-03-15T17:36:51.239Z,6.48
2023-03-15T17:39:17.672Z,6.42
2023-03-15T17:41:46.791Z,6.33
2023-03-15T17:44:13.428Z,6.27
2023-03-15T17:46:39.935Z,6.20
2023-03-15T17:49:08.917Z,6.17
2023-03-15T17:51:36.681Z,6.12
2023-03-15T17:54:12.161Z,6.07
2023-03-15T17:56:38.590Z,6.00
2023-03-15T17:59:05.136Z,5.92
2023-03-15T18:01:41.162Z,5.87
2023-03-15T18:04:12.236Z,5.79
2023-03-15T18:06:39.249Z,5.74
2023-03-15T18:09:05.695Z,5.67
2023-03-15T18:11:35.718Z,5.63
2023-03-15T18:14:05.110Z,5.58
2023-03-15T18:16:32.069Z,5.54
2023-03-15T18:18:58.542Z,5.48
2023-03-15T18:21:26.864Z,5.44
2023-03-15T18:23:54.115Z,5.42
2023-03-15T18:26:20.920Z,5.40
2023-03-15T18:28:48.945Z,5.36
2023-03-15T18:31:20.742Z,5.30
2023-03-15T18:33:47.380Z,5.25
2023-03-15T18:36:13.829Z,5.20
2023-03-15T18:38:40.832Z,5.15
2023-03-15T18:41:24.788Z,5.12
2023-03-15T18:43:51.594Z,5.09
2023-03-15T18:46:19.681Z,5.01
2023-03-15T18:48:46.992Z,4.99
2023-03-15T18:53:44.641Z,4.95
2023-03-15T18:56:20.044Z,4.90
2023-03-15T18:58:47.860Z,4.85
2023-03-15T19:01:15.858Z,4.79
2023-03-15T19:03:42.655Z,4.75
2023-03-15T19:06:11.720Z,4.70
2023-03-15T19:08:38.448Z,4.64
2023-03-15T19:11:05.999Z,4.60
2023-03-15T19:13:32.457Z,4.57
2023-03-15T19:15:58.879Z,4.53
2023-03-15T19:18:25.699Z,4.46
2023-03-15T19:20:52.807Z,4.46
2023-03-15T19:23:20.259Z,4.47
2023-03-15T19:25:47.507Z,4.43
2023-03-15T19:28:14.187Z,4.42
2023-03-15T19:30:41.486Z,4.36
2023-03-15T19:33:08.269Z,4.35
2023-03-15T19:35:34.830Z,4.32
2023-03-15T19:38:01.429Z,4.31
2023-03-15T19:40:27.903Z,4.30
2023-03-15T19:42:54.329Z,4.28
2023-03-15T19:45:20.853Z,4.26
2023-03-15T19:47:47.283Z,4.20
2023-03-15T19:50:14.537Z,4.13
2023-03-15T19:52:46.055Z,4.13
2023-03-15T19:55:14.229Z,4.07
2023-03-15T19:57:40.756Z,4.07
2023-03-15T20:00:12.497Z,4.06
2023-03-15T20:02:41.082Z,4.03
2023-03-15T20:05:09.432Z,4.00
2023-03-15T20:07:36.760Z,3.99
2023-03-15T20:10:04.859Z,3.96
2023-03-15T20:12:32.262Z,3.92
2023-03-15T20:14:58.781Z,3.90
2023-03-15T20:17:26.851Z,3.91
2023-03-15T20:19:53.294Z,3.90
2023-03-15T20:22:19.814Z,3.89
2023-03-15T20:24:46.343Z,3.86
2023-03-15T20:27:13.228Z,3.88
2023-03-15T20:29:39.645Z,3.85
2023-03-15T20:32:06.133Z,3.86
2023-03-15T20:34:32.564Z,3.83
2023-03-15T20:36:59.315Z,3.80
2023-03-15T20:39:25.892Z,3.79
2023-03-15T20:41:52.305Z,3.75
2023-03-15T20:44:19.717Z,3.72
2023-03-15T20:46:46.254Z,3.71
2023-03-15T20:49:14.168Z,3.68
2023-03-15T20:51:40.572Z,3.67
2023-03-15T20:54:07.016Z,3.66
2023-03-15T20:56:34.254Z,3.62
2023-03-15T20:59:01.117Z,3.59
2023-03-15T21:01:27.559Z,3.58
2023-03-15T21:03:56.118Z,3.52
2023-03-15T21:06:22.764Z,3.51
2023-03-15T21:08:49.231Z,3.49
2023-03-15T21:11:15.625Z,3.49
2023-03-15T21:13:42.065Z,3.45
2023-03-15T21:16:08.594Z,3.47
2023-03-15T21:18:36.082Z,3.48
2023-03-15T21:21:05.065Z,3.47
2023-03-15T21:23:31.600Z,3.47
2023-03-15T21:25:59.276Z,3.43
2023-03-15T21:28:26.206Z,3.40
2023-03-15T21:30:53.292Z,3.38
2023-03-15T21:33:21.051Z,3.35
2023-03-15T21:35:47.596Z,3.27
2023-03-15T21:38:14.335Z,3.24
2023-03-15T21:40:48.634Z,3.23
2023-03-15T21:43:15.130Z,3.22
2023-03-15T21:45:42.029Z,3.19
2023-03-15T21:48:08.692Z,3.15
2023-03-15T21:50:35.365Z,3.11
2023-03-15T21:53:01.914Z,3.07
2023-03-15T21:55:31.202Z,3.04
2023-03-15T21:57:57.614Z,3.01
2023-03-15T22:00:24.452Z,3.00
2023-03-15T22:02:55.236Z,2.92
2023-03-15T22:05:22.227Z,2.85
2023-03-15T22:07:48.791Z,2.82
2023-03-15T22:10:15.562Z,2.79
2023-03-15T22:12:42.460Z,2.75
2023-03-15T22:15:09.902Z,2.77
2023-03-15T22:17:36.295Z,2.72
2023-03-15T22:20:07.937Z,2.65
2023-03-15T22:22:34.383Z,2.65
2023-03-15T22:25:00.812Z,2.70
2023-03-15T22:27:27.244Z,2.69
2023-03-15T22:29:53.733Z,2.67
2023-03-15T22:32:20.211Z,2.64
2023-03-15T22:34:46.791Z,2.62
2023-03-15T22:37:13.269Z,2.63
2023-03-15T22:39:39.773Z,2.62
2023-03-15T22:42:06.306Z,2.64
2023-03-15T22:44:32.727Z,2.60
2023-03-15T22:46:59.162Z,2.59
2023-03-15T22:49:25.610Z,2.59
2023-03-15T22:51:52.049Z,2.59
2023-03-15T22:54:18.465Z,2.54
2023-03-15T22:56:44.970Z,2.53
2023-03-15T22:59:11.392Z,2.54
2023-03-15T23:01:37.880Z,2.54
2023-03-15T23:04:04.471Z,2.57
2023-03-15T23:06:30.894Z,2.57
2023-03-15T23:08:57.316Z,2.55
2023-03-15T23:11:23.724Z,2.55
2023-03-15T23:13:50.305Z,2.51
2023-03-15T23:16:17.497Z,2.47
2023-03-15T23:18:44.084Z,2.44
2023-03-15T23:21:14.370Z,2.42
2023-03-15T23:23:42.992Z,2.41
2023-03-15T23:26:09.623Z,2.39
2023-03-15T23:28:36.271Z,2.38
2023-03-15T23:31:05.036Z,2.36
2023-03-15T23:33:34.846Z,2.33
2023-03-15T23:36:02.623Z,2.35
2023-03-15T23:38:29.279Z,2.37
2023-03-15T23:40:57.323Z,2.37
2023-03-15T23:43:23.906Z,2.35
2023-03-15T23:45:58.036Z,2.35
2023-03-15T23:48:25.080Z,2.36
2023-03-15T23:50:58.352Z,2.33
2023-03-15T23:53:25.508Z,2.34
2023-03-15T23:55:52.626Z,2.30
2023-03-15T23:58:19.527Z,2.26
